createdAt,value
2023-01-20T00:04:02.519Z,1.10
2023-01-20T00:09:05.378Z,1.15
2023-01-20T00:14:07.114Z,1.20
2023-01-20T00:19:12.167Z,0.98
2023-01-20T00:24:14.658Z,1.10
2023-01-20T00:29:16.477Z,1.17
2023-01-20T00:34:18.355Z,1.67
2023-01-20T00:39:20.053Z,1.02
2023-01-20T00:44:21.717Z,1.30
2023-01-20T00:49:23.460Z,1.63
2023-01-20T00:54:25.329Z,1.35
2023-01-20T00:59:27.319Z,1.23
2023-01-20T01:04:29.146Z,1.63
2023-01-20T01:09:32.551Z,1.40
2023-01-20T01:14:34.327Z,1.55
2023-01-20T01:19:35.996Z,1.45
2023-01-20T01:24:37.856Z,1.45
2023-01-20T01:29:39.668Z,1.67
2023-01-20T01:34:41.649Z,1.50
2023-01-20T01:39:43.320Z,1.50
2023-01-20T01:45:13.401Z,1.60
2023-01-20T01:50:21.538Z,1.42
2023-01-20T01:55:27.692Z,1.25
2023-01-20T02:00:29.821Z,1.38
2023-01-20T02:05:32.570Z,1.15
2023-01-20T02:10:34.229Z,1.27
2023-01-20T02:15:45.384Z,1.60
2023-01-20T02:20:54.503Z,1.33
2023-01-20T02:26:14.915Z,1.30
2023-01-20T02:31:50.082Z,1.30
2023-01-20T02:36:54.235Z,1.33
2023-01-20T02:42:01.559Z,1.52
2023-01-20T02:47:08.251Z,0.75
2023-01-20T02:52:21.090Z,1.48
2023-01-20T02:57:29.702Z,1.08
2023-01-20T03:02:36.162Z,1.25
2023-01-20T03:07:41.731Z,1.20
2023-01-20T03:13:02.992Z,1.17
2023-01-20T03:18:04.999Z,1.20
2023-01-20T03:23:06.955Z,1.20
2023-01-20T03:28:08.621Z,1.30
2023-01-20T03:33:12.048Z,1.20
2023-01-20T03:38:13.893Z,1.17
2023-01-20T03:43:45.715Z,1.48
2023-01-20T03:48:53.998Z,1.20
2023-01-20T03:54:04.052Z,1.20
2023-01-20T03:59:09.553Z,1.48
2023-01-20T04:04:18.092Z,1.15
2023-01-20T04:09:25.136Z,1.10
2023-01-20T04:14:26.835Z,1.20
2023-01-20T04:19:28.447Z,1.00
2023-01-20T04:25:20.807Z,1.25
2023-01-20T04:30:22.611Z,1.20
2023-01-20T04:35:24.444Z,1.10
2023-01-20T04:40:26.899Z,1.08
2023-01-20T04:45:28.570Z,1.10
2023-01-20T04:50:30.233Z,1.30
2023-01-20T04:55:33.353Z,1.42
2023-01-20T05:00:35.041Z,1.10
2023-01-20T05:05:36.720Z,1.30
2023-01-20T05:10:38.412Z,1.00
2023-01-20T05:15:40.677Z,1.25
2023-01-20T05:20:49.324Z,1.33
2023-01-20T05:25:52.057Z,1.60
2023-01-20T05:30:53.825Z,1.05
2023-01-20T05:35:56.128Z,1.17
2023-01-20T05:41:06.168Z,1.70
2023-01-20T05:46:07.917Z,1.55
2023-01-20T05:51:09.842Z,1.20
2023-01-20T05:56:16.366Z,1.48
2023-01-20T06:01:18.116Z,1.30
2023-01-20T06:06:19.873Z,1.48
2023-01-20T06:11:21.763Z,1.30
2023-01-20T06:16:23.942Z,1.02
2023-01-20T06:21:25.916Z,1.42
2023-01-20T06:26:27.623Z,1.30
2023-01-20T06:31:29.403Z,1.20
2023-01-20T06:36:31.082Z,1.38
2023-01-20T06:41:32.967Z,1.48
2023-01-20T06:46:34.794Z,1.75
2023-01-20T06:51:36.639Z,1.30
2023-01-20T06:56:38.316Z,1.67
2023-01-20T07:01:40.430Z,1.75
2023-01-20T07:06:42.631Z,1.67
2023-01-20T07:11:44.556Z,1.40
2023-01-20T07:16:46.805Z,1.58
2023-01-20T07:21:48.522Z,1.38
2023-01-20T07:26:52.813Z,1.10
2023-01-20T07:31:54.546Z,1.98
2023-01-20T07:36:56.293Z,1.65
2023-01-20T07:41:58.091Z,1.38
2023-01-20T07:46:59.913Z,1.23
2023-01-20T07:52:01.619Z,1.75
2023-01-20T07:57:03.283Z,1.63
2023-01-20T08:02:05.119Z,1.50
2023-01-20T08:07:07.007Z,1.48
2023-01-20T08:12:08.774Z,0.98
2023-01-20T08:17:10.526Z,1.45
2023-01-20T08:22:12.307Z,1.20
2023-01-20T08:27:13.997Z,1.00
2023-01-20T08:32:15.688Z,1.23
2023-01-20T08:37:17.726Z,0.90
2023-01-20T08:42:19.698Z,2.40
2023-01-20T08:47:21.392Z,2.13
2023-01-20T08:52:23.144Z,2.42
2023-01-20T08:57:26.598Z,2.90
2023-01-20T09:02:28.674Z,2.10
2023-01-20T09:07:30.507Z,1.75
2023-01-20T09:12:32.273Z,2.38
2023-01-20T09:17:37.105Z,2.38
2023-01-20T09:22:40.543Z,2.88
2023-01-20T09:27:42.220Z,2.00
2023-01-20T09:32:43.968Z,1.70
2023-01-20T09:38:03.959Z,1.50
2023-01-20T09:43:54.191Z,1.52
2023-01-20T09:49:32.290Z,1.13
2023-01-20T09:54:50.620Z,1.42
2023-01-20T10:00:03.222Z,1.35
2023-01-20T10:05:33.187Z,0.93
2023-01-20T10:10:46.742Z,1.13
2023-01-20T10:15:53.785Z,0.63
2023-01-20T10:20:58.426Z,1.08
2023-01-20T10:26:09.529Z,0.80
2023-01-20T10:31:15.032Z,1.00
2023-01-20T10:36:23.434Z,1.08
2023-01-20T10:41:31.352Z,1.05
2023-01-20T10:46:39.158Z,1.20
2023-01-20T10:51:52.816Z,0.50
2023-01-20T10:56:59.154Z,0.70
2023-01-20T11:02:18.645Z,1.27
2023-01-20T11:07:20.407Z,1.00
2023-01-20T11:12:28.927Z,0.95
2023-01-20T11:17:30.916Z,0.93
2023-01-20T11:22:36.671Z,0.75
2023-01-20T11:27:44.245Z,0.93
2023-01-20T11:32:46.030Z,0.80
2023-01-20T11:37:47.820Z,0.43
2023-01-20T11:42:51.776Z,0.90
2023-01-20T11:48:04.971Z,0.73
2023-01-20T11:53:12.580Z,0.75
2023-01-20T11:58:20.810Z,1.40
2023-01-20T12:03:31.717Z,0.88
2023-01-20T12:08:39.024Z,1.10
2023-01-20T12:14:25.752Z,2.15
2023-01-20T12:19:51.877Z,1.48
2023-01-20T12:25:10.749Z,1.10
2023-01-20T12:30:51.295Z,1.17
2023-01-20T12:36:07.922Z,0.98
2023-01-20T12:41:32.779Z,0.90
2023-01-20T12:46:41.882Z,1.38
2023-01-20T12:52:03.813Z,1.35
2023-01-20T12:57:47.359Z,0.90
2023-01-20T13:03:01.734Z,1.45
2023-01-20T13:08:36.954Z,1.83
2023-01-20T13:13:57.584Z,2.45
2023-01-20T13:19:08.924Z,1.38
2023-01-20T13:24:24.442Z,2.17
2023-01-20T13:29:35.159Z,1.42
2023-01-20T13:34:40.495Z,1.90
2023-01-20T13:39:52.202Z,1.17
2023-01-20T13:45:12.124Z,1.60
2023-01-20T13:50:30.807Z,1.35
2023-01-20T13:55:41.663Z,1.75
2023-01-20T14:00:44.634Z,1.65
2023-01-20T14:06:19.563Z,1.17
2023-01-20T14:11:22.660Z,1.17
2023-01-20T14:16:28.481Z,2.03
2023-01-20T14:21:41.580Z,1.50
2023-01-20T14:26:43.305Z,1.33
2023-01-20T14:31:46.297Z,1.17
2023-01-20T14:36:49.074Z,1.00
2023-01-20T14:41:59.242Z,1.25
2023-01-20T14:47:02.813Z,0.98
2023-01-20T14:52:06.122Z,1.02
2023-01-20T14:57:21.941Z,1.20
2023-01-20T15:02:30.451Z,1.00
2023-01-20T15:07:32.200Z,0.95
2023-01-20T15:12:47.395Z,1.05
2023-01-20T15:18:11.145Z,1.00
2023-01-20T15:23:21.398Z,1.00
2023-01-20T15:28:29.670Z,0.88
2023-01-20T15:33:31.469Z,0.50
2023-01-20T15:38:33.226Z,0.50
2023-01-20T15:43:34.881Z,0.90
2023-01-20T15:48:36.567Z,0.57
2023-01-20T15:53:38.205Z,0.57
2023-01-20T15:58:39.901Z,0.65
2023-01-20T16:03:41.936Z,0.80
2023-01-20T16:08:46.605Z,0.40
2023-01-20T16:13:48.518Z,0.70
2023-01-20T16:18:50.760Z,0.60
2023-01-20T16:23:52.496Z,0.85
2023-01-20T16:28:56.681Z,0.60
2023-01-20T16:33:58.509Z,0.90
2023-01-20T16:39:00.175Z,0.90
2023-01-20T16:44:02.046Z,0.63
2023-01-20T16:49:03.834Z,0.77
2023-01-20T16:54:05.690Z,0.77
2023-01-20T16:59:08.256Z,0.80
2023-01-20T17:04:11.018Z,0.77
2023-01-20T17:09:12.804Z,0.80
2023-01-20T17:14:15.758Z,0.70
2023-01-20T17:19:17.918Z,0.52
2023-01-20T17:24:19.605Z,0.73
2023-01-20T17:29:22.165Z,0.70
2023-01-20T17:34:24.009Z,0.70
2023-01-20T17:39:25.856Z,0.82
2023-01-20T17:44:27.605Z,0.85
2023-01-20T17:49:29.318Z,0.93
2023-01-20T17:54:31.491Z,0.88
2023-01-20T17:59:33.203Z,0.80
2023-01-20T18:04:34.875Z,1.88
2023-01-20T18:09:36.586Z,2.10
2023-01-20T18:14:38.840Z,2.53
2023-01-20T18:19:40.582Z,2.55
2023-01-20T18:24:42.334Z,2.42
2023-01-20T18:29:44.198Z,1.48
2023-01-20T18:34:45.991Z,2.22
2023-01-20T18:39:47.723Z,1.58
2023-01-20T18:44:49.524Z,2.17
2023-01-20T18:49:51.311Z,1.50
2023-01-20T18:54:53.292Z,1.58
2023-01-20T18:59:55.217Z,1.33
2023-01-20T19:04:56.870Z,2.13
2023-01-20T19:09:58.586Z,1.50
2023-01-20T19:15:00.267Z,2.08
2023-01-20T19:20:02.168Z,1.67
2023-01-20T19:25:03.992Z,1.30
2023-01-20T19:30:06.347Z,1.52
2023-01-20T19:35:09.254Z,1.67
2023-01-20T19:40:11.468Z,1.27
2023-01-20T19:45:13.436Z,1.17
2023-01-20T19:50:15.746Z,1.40
2023-01-20T19:55:17.646Z,1.20
2023-01-20T20:00:19.936Z,0.80
2023-01-20T20:05:21.691Z,1.60
2023-01-20T20:10:23.446Z,0.90
2023-01-20T20:15:25.191Z,0.93
2023-01-20T20:20:27.162Z,1.27
2023-01-20T20:25:28.893Z,0.88
2023-01-20T20:30:31.065Z,0.75
2023-01-20T20:35:35.824Z,1.33
2023-01-20T20:40:37.795Z,1.50
2023-01-20T20:45:39.509Z,1.13
2023-01-20T20:50:41.239Z,0.88
2023-01-20T20:55:43.003Z,0.85
2023-01-20T21:00:49.979Z,1.02
2023-01-20T21:05:51.705Z,0.82
2023-01-20T21:10:53.465Z,1.40
2023-01-20T21:16:00.633Z,1.63
2023-01-20T21:21:04.107Z,1.00
2023-01-20T21:26:11.937Z,1.13
2023-01-20T21:31:16.827Z,1.48
2023-01-20T21:36:18.577Z,1.23
2023-01-20T21:41:20.588Z,1.17
2023-01-20T21:46:23.880Z,1.15
2023-01-20T21:51:44.178Z,1.30
2023-01-20T21:56:46.239Z,1.17
2023-01-20T22:01:48.121Z,1.05
2023-01-20T22:06:49.899Z,1.33
2023-01-20T22:11:51.682Z,1.83
2023-01-20T22:16:53.380Z,2.03
2023-01-20T22:21:56.905Z,2.25
2023-01-20T22:26:58.817Z,0.95
2023-01-20T22:32:03.327Z,1.27
2023-01-20T22:37:05.000Z,1.10
2023-01-20T22:42:07.721Z,1.63
2023-01-20T22:47:11.018Z,1.88
2023-01-20T22:52:12.937Z,1.35
2023-01-20T22:57:15.221Z,1.20
2023-01-20T23:02:16.968Z,1.33
2023-01-20T23:07:18.965Z,1.27
2023-01-20T23:12:20.635Z,1.23
2023-01-20T23:17:22.364Z,1.30
2023-01-20T23:22:25.000Z,1.73
2023-01-20T23:27:26.711Z,1.60
2023-01-20T23:32:28.411Z,1.40
2023-01-20T23:37:30.352Z,1.20
2023-01-20T23:42:32.016Z,0.98
2023-01-20T23:47:33.946Z,1.10
2023-01-20T23:52:35.792Z,0.95
2023-01-20T23:57:37.462Z,1.25
